الصفحة الرئيسية
METAR-TAF:

METAR-TAF

مطار :

ماناغوا, نيكاراغوا

دائرة عرض: 12-09N, خط طول: 086-10W, ارتفاع: 50 متر

مراقبة الطقس الحالي

تاريخ ووقت الإصدار 1ساعة و 7 دقيقة قبل الساعة 04:00UTC
ريح 10 عقدة من الشمال الشرقي
درجة الحرارة 27°درجة مئوية
الرطوبة 79%
ضغط 1011 hPa
الرؤية 10 كم أو أكثر
غيوم متفرقة على ارتفاع 2000 قدم
غيوم متفرقة على ارتفاع 7000 قدم

METAR: MNMG 100400Z 05010KT 9999 SCT020 SCT070 27/23 Q1010 A2985 NOSIG

زمن: 23:07 (05:07 UTC)

توقعات

تاريخ ووقت الإصدار 7ساعات و 29 دقيقة قبل الساعة 21:38UTC
التوقعات صالحة من10 الساعة 00 UTC إلى 10 الساعة 24 UTC
ريح 10 عقدة من الشرق/الشمال الشرقي تتزايد حتى 20 عقدة
الرؤية 10 كم أو أكثر
غيوم متفرقة على ارتفاع 2300 قدم
أصبح
من 10 الساعة 07 UTC إلى 10 الساعة 11 UTC
ريح 4 عقدة من الشرق/الجنوب الشرقي
غيوم قليلة على ارتفاع 2100 قدم
مؤقت
من 10 الساعة 13 UTC إلى 10 الساعة 17 UTC
ريح 14 عقدة من الشرق/الشمال الشرقي تتزايد حتى 25 عقدة
أصبح
من 10 الساعة 19 UTC إلى 10 الساعة 23 UTC
غيوم متفرقة على ارتفاع 2500 قدم

TAF: MNMG 092138Z 1000/1024 07010G20KT 9999 SCT023 BECMG 1007/1011 11004KT FEW021 TEMPO 1013/1017 07014G25KT BECMG 1019/1023 SCT025

أرصاد الطقس والتوقعات من أكثر من 4000 مطار (تقارير الطقس للمطار METAR والتنبؤ بالطقس بالمطارTAF).

المحطات المتاحة هي النقط الصفراء والحمراء على الخريطة.

حرك المؤشر فوق النقطة لمعرفة اسم المحطة.

ثم انقر لمعرفة أرصاد وتوقعات الطقس.

لتغيير الخارطة: اضغط على الأزرار الخضراء مع رمز الصليب الأسود للتكبير. على الزر الأخضر مع شرطة للتصغير، أو على الأسهم الخضراء للخرائط المجاورة.


METAR-TAF: